createdAt,value
2023-04-29T00:01:13.088Z,15.27
2023-04-29T00:03:43.104Z,15.30
2023-04-29T00:06:12.665Z,15.34
2023-04-29T00:08:42.140Z,15.36
2023-04-29T00:11:12.054Z,15.35
2023-04-29T00:13:41.547Z,15.34
2023-04-29T00:16:11.294Z,15.36
2023-04-29T00:18:40.876Z,15.38
2023-04-29T00:21:10.735Z,15.44
2023-04-29T00:23:40.062Z,15.47
2023-04-29T00:26:09.255Z,15.49
2023-04-29T00:28:38.260Z,15.46
2023-04-29T00:31:07.453Z,15.44
2023-04-29T00:33:36.249Z,15.44
2023-04-29T00:36:05.632Z,15.50
2023-04-29T00:38:34.692Z,15.44
2023-04-29T00:41:04.501Z,15.34
2023-04-29T00:43:33.954Z,15.29
2023-04-29T00:46:02.864Z,15.24
2023-04-29T00:48:33.767Z,15.15
2023-04-29T00:51:04.366Z,15.06
2023-04-29T00:53:34.023Z,15.02
2023-04-29T00:56:03.462Z,14.97
2023-04-29T00:58:35.917Z,14.78
2023-04-29T01:01:05.348Z,14.62
2023-04-29T01:03:34.623Z,14.55
2023-04-29T01:06:39.000Z,14.43
2023-04-29T01:09:32.380Z,14.16
2023-04-29T01:12:23.420Z,13.98
2023-04-29T01:15:04.936Z,13.93
2023-04-29T01:18:12.511Z,13.98
2023-04-29T01:20:45.262Z,14.01
2023-04-29T01:23:15.436Z,14.09
2023-04-29T01:25:45.898Z,14.17
2023-04-29T01:28:32.543Z,14.22
2023-04-29T01:31:12.255Z,14.20
2023-04-29T01:34:13.578Z,14.13
2023-04-29T01:37:06.643Z,13.95
2023-04-29T01:39:57.658Z,13.95
2023-04-29T01:42:34.716Z,14.00
2023-04-29T01:45:09.145Z,14.01
2023-04-29T01:47:39.700Z,13.95
2023-04-29T01:50:10.019Z,13.86
2023-04-29T01:52:39.775Z,13.84
2023-04-29T01:55:11.741Z,13.85
2023-04-29T01:57:41.433Z,13.86
2023-04-29T02:00:12.468Z,13.86
2023-04-29T02:02:42.120Z,13.84
2023-04-29T02:05:11.832Z,13.81
2023-04-29T02:07:40.558Z,13.78
2023-04-29T02:10:09.955Z,13.80
2023-04-29T02:12:38.968Z,13.87
2023-04-29T02:15:09.063Z,13.88
2023-04-29T02:17:38.265Z,13.87
2023-04-29T02:20:08.942Z,13.93
2023-04-29T02:22:38.041Z,13.95
2023-04-29T02:25:07.740Z,13.97
2023-04-29T02:27:36.817Z,13.93
2023-04-29T02:30:06.930Z,13.94
2023-04-29T02:32:36.994Z,14.00
2023-04-29T02:35:07.295Z,14.11
2023-04-29T02:37:37.198Z,14.09
2023-04-29T02:40:07.902Z,14.03
2023-04-29T02:42:37.224Z,14.05
2023-04-29T02:45:06.910Z,14.09
2023-04-29T02:47:35.822Z,14.16
2023-04-29T02:50:05.329Z,14.22
2023-04-29T02:52:34.501Z,14.11
2023-04-29T02:55:03.771Z,14.04
2023-04-29T02:57:33.148Z,14.06
2023-04-29T03:00:02.612Z,14.12
2023-04-29T03:02:31.832Z,14.19
2023-04-29T03:05:01.571Z,14.18
2023-04-29T03:07:31.002Z,14.09
2023-04-29T03:10:00.450Z,14.06
2023-04-29T03:12:29.716Z,13.97
2023-04-29T03:14:59.161Z,13.93
2023-04-29T03:17:28.199Z,13.85
2023-04-29T03:19:57.815Z,13.69
2023-04-29T03:22:27.310Z,13.57
2023-04-29T03:24:56.817Z,13.54
2023-04-29T03:27:26.000Z,13.47
2023-04-29T03:29:55.695Z,13.40
2023-04-29T03:32:24.969Z,13.30
2023-04-29T03:34:55.233Z,13.26
2023-04-29T03:37:24.811Z,13.25
2023-04-29T03:39:54.080Z,13.20
2023-04-29T03:42:23.237Z,13.14
2023-04-29T03:44:52.549Z,13.09
2023-04-29T03:47:21.598Z,13.09
2023-04-29T03:49:51.040Z,13.03
2023-04-29T03:52:20.305Z,12.96
2023-04-29T03:54:49.504Z,12.91
2023-04-29T03:57:18.421Z,12.87
2023-04-29T03:59:51.203Z,12.86
2023-04-29T04:02:20.543Z,12.84
2023-04-29T04:04:49.777Z,12.83
2023-04-29T04:07:18.967Z,12.86
2023-04-29T04:09:48.073Z,12.93
2023-04-29T04:12:17.244Z,12.97
2023-04-29T04:14:46.194Z,12.97
2023-04-29T04:17:14.983Z,13.01
2023-04-29T04:19:44.058Z,13.08
2023-04-29T04:22:13.586Z,13.16
2023-04-29T04:24:42.551Z,13.20
2023-04-29T04:27:11.656Z,13.21
2023-04-29T04:29:40.785Z,13.22
2023-04-29T04:32:09.795Z,13.26
2023-04-29T04:34:40.190Z,13.26
2023-04-29T04:37:09.267Z,13.25
2023-04-29T04:39:39.800Z,13.26
2023-04-29T04:42:08.472Z,13.30
2023-04-29T04:44:38.315Z,13.31
2023-04-29T04:47:07.621Z,13.27
2023-04-29T04:49:36.787Z,13.02
2023-04-29T04:52:05.824Z,12.98
2023-04-29T04:54:35.788Z,12.98
2023-04-29T04:57:06.832Z,13.06
2023-04-29T04:59:35.888Z,13.14
2023-04-29T05:02:05.082Z,13.16
2023-04-29T05:04:34.676Z,13.25
2023-04-29T05:07:04.288Z,13.39
2023-04-29T05:09:33.677Z,13.47
2023-04-29T05:12:02.934Z,13.52
2023-04-29T05:14:31.921Z,13.63
2023-04-29T05:17:01.698Z,13.78
2023-04-29T05:19:31.153Z,13.90
2023-04-29T05:22:00.135Z,14.01
2023-04-29T05:24:30.146Z,14.18
2023-04-29T05:26:59.302Z,14.33
2023-04-29T05:29:28.691Z,14.42
2023-04-29T05:31:57.990Z,14.54
2023-04-29T05:34:27.041Z,14.69
2023-04-29T05:36:56.341Z,14.77
2023-04-29T05:39:25.131Z,14.78
2023-04-29T05:41:54.178Z,14.74
2023-04-29T05:44:23.625Z,14.79
2023-04-29T05:46:52.987Z,14.97
2023-04-29T05:49:25.648Z,15.12
2023-04-29T05:51:55.390Z,15.23
2023-04-29T05:54:24.969Z,15.21
2023-04-29T05:56:54.979Z,15.24
2023-04-29T05:59:23.974Z,15.34
2023-04-29T06:01:55.351Z,15.52
2023-04-29T06:04:28.765Z,15.72
2023-04-29T06:07:05.945Z,15.92
2023-04-29T06:09:43.186Z,16.09
2023-04-29T06:12:20.871Z,16.39
2023-04-29T06:14:53.342Z,16.70
2023-04-29T06:17:23.222Z,17.09
2023-04-29T06:19:53.251Z,17.43
2023-04-29T06:22:24.282Z,17.75
2023-04-29T06:24:54.058Z,18.06
2023-04-29T06:27:24.129Z,18.25
2023-04-29T06:29:53.869Z,18.39
2023-04-29T06:32:23.687Z,18.59
2023-04-29T06:34:56.328Z,18.78
2023-04-29T06:37:29.317Z,18.98
2023-04-29T06:39:58.850Z,19.13
2023-04-29T06:42:28.067Z,19.19
2023-04-29T06:44:56.958Z,19.38
2023-04-29T06:47:26.150Z,19.76
2023-04-29T06:49:55.547Z,20.43
2023-04-29T06:52:25.407Z,21.14
2023-04-29T06:54:54.529Z,21.80
2023-04-29T06:57:24.699Z,22.31
2023-04-29T06:59:53.860Z,22.65
2023-04-29T07:02:23.794Z,23.25
2023-04-29T07:04:54.928Z,23.56
2023-04-29T07:07:24.006Z,23.63
2023-04-29T07:09:54.023Z,23.63
2023-04-29T07:12:23.161Z,23.42
2023-04-29T07:14:52.356Z,23.65
2023-04-29T07:17:22.705Z,24.14
2023-04-29T07:19:53.994Z,24.25
2023-04-29T07:22:26.579Z,24.58
2023-04-29T07:24:57.659Z,24.33
2023-04-29T07:27:27.784Z,24.00
2023-04-29T07:30:04.683Z,23.61
2023-04-29T07:32:34.178Z,24.07
2023-04-29T07:35:04.253Z,24.60
2023-04-29T07:37:33.535Z,25.28
2023-04-29T07:40:02.898Z,25.75
2023-04-29T07:42:32.569Z,25.75
2023-04-29T07:45:02.369Z,25.53
2023-04-29T07:47:31.942Z,25.46
2023-04-29T07:50:01.668Z,25.20
2023-04-29T07:52:30.804Z,25.08
2023-04-29T07:55:01.156Z,24.99
2023-04-29T07:57:30.912Z,24.96
2023-04-29T08:00:00.582Z,25.11
2023-04-29T08:02:30.278Z,25.11
2023-04-29T08:05:02.023Z,25.06
2023-04-29T08:07:32.308Z,25.45
2023-04-29T08:10:01.584Z,25.64
2023-04-29T08:12:31.809Z,25.69
2023-04-29T08:15:01.619Z,25.78
2023-04-29T08:17:32.535Z,25.83
2023-04-29T08:20:02.151Z,25.72
2023-04-29T08:22:31.810Z,25.84
2023-04-29T08:25:01.405Z,26.26
2023-04-29T08:27:30.821Z,26.42
2023-04-29T08:30:00.156Z,26.23
2023-04-29T08:32:31.155Z,25.87
2023-04-29T08:35:00.907Z,25.57
2023-04-29T08:37:31.523Z,25.26
2023-04-29T08:40:00.962Z,24.76
2023-04-29T08:42:35.529Z,24.30
2023-04-29T08:45:07.026Z,23.85
2023-04-29T08:47:39.230Z,23.50
2023-04-29T08:50:10.186Z,23.18
2023-04-29T08:52:39.416Z,22.93
2023-04-29T08:55:09.868Z,22.84
2023-04-29T08:57:41.855Z,22.77
2023-04-29T09:00:12.241Z,22.63
2023-04-29T09:03:06.142Z,22.53
2023-04-29T09:05:35.026Z,22.33
2023-04-29T09:08:06.270Z,22.32
2023-04-29T09:10:39.550Z,22.35
2023-04-29T09:13:09.550Z,22.41
2023-04-29T09:15:43.156Z,22.45
2023-04-29T09:18:12.677Z,22.44
2023-04-29T09:20:42.119Z,22.37
2023-04-29T09:23:11.383Z,22.26
2023-04-29T09:25:40.592Z,22.10
2023-04-29T09:28:17.815Z,21.91
2023-04-29T09:30:47.776Z,21.77
2023-04-29T09:33:17.872Z,21.66
2023-04-29T09:35:48.372Z,21.58
2023-04-29T09:38:18.207Z,21.58
2023-04-29T09:40:58.925Z,21.54
2023-04-29T09:43:29.331Z,21.62
2023-04-29T09:45:59.184Z,21.88
2023-04-29T09:48:34.914Z,22.24
2023-04-29T09:51:07.957Z,22.68
2023-04-29T09:53:39.512Z,23.17
2023-04-29T09:56:09.658Z,23.37
2023-04-29T09:58:40.758Z,23.33
2023-04-29T10:01:10.907Z,23.20
2023-04-29T10:03:43.252Z,23.13
2023-04-29T10:06:13.790Z,23.02
2023-04-29T10:08:44.740Z,22.91
2023-04-29T10:11:16.923Z,22.80
2023-04-29T10:13:48.673Z,22.66
2023-04-29T10:16:31.330Z,22.59
2023-04-29T10:19:07.365Z,22.50
2023-04-29T10:21:38.866Z,22.27
2023-04-29T10:24:14.118Z,22.10
2023-04-29T10:26:45.109Z,22.12
2023-04-29T10:29:16.524Z,22.31
2023-04-29T10:31:48.003Z,22.46
2023-04-29T10:34:19.191Z,22.60
2023-04-29T10:36:50.038Z,22.62
2023-04-29T10:39:34.325Z,22.58
2023-04-29T10:42:15.422Z,22.54
2023-04-29T10:45:22.161Z,22.57
2023-04-29T10:48:03.451Z,22.48
2023-04-29T10:50:38.219Z,22.49
2023-04-29T10:53:07.554Z,22.49
2023-04-29T10:55:39.066Z,22.43
2023-04-29T10:58:40.279Z,22.31
2023-04-29T11:01:11.855Z,22.15
2023-04-29T11:03:47.468Z,22.11
2023-04-29T11:06:18.536Z,22.05
2023-04-29T11:08:49.156Z,21.96
2023-04-29T11:11:18.609Z,21.84
2023-04-29T11:13:48.745Z,21.70
2023-04-29T11:16:30.191Z,21.58
2023-04-29T11:19:09.937Z,21.55
2023-04-29T11:21:39.871Z,21.60
2023-04-29T11:24:09.543Z,21.67
2023-04-29T11:26:39.612Z,21.77
2023-04-29T11:29:12.376Z,21.77
2023-04-29T11:31:41.868Z,21.77
2023-04-29T11:34:11.739Z,21.82
2023-04-29T11:36:41.082Z,21.89
2023-04-29T11:39:10.662Z,21.91
2023-04-29T11:41:40.154Z,21.98
2023-04-29T11:44:11.044Z,22.09
2023-04-29T11:46:40.795Z,22.13
2023-04-29T11:49:09.910Z,22.17
2023-04-29T11:51:40.242Z,22.28
2023-04-29T11:54:10.195Z,22.25
2023-04-29T11:56:39.520Z,22.25
2023-04-29T11:59:09.600Z,22.17
2023-04-29T12:01:40.794Z,22.03
2023-04-29T12:04:14.197Z,21.93
2023-04-29T12:06:44.524Z,22.00
2023-04-29T12:09:16.395Z,22.08
2023-04-29T12:11:48.001Z,22.15
2023-04-29T12:14:18.296Z,22.36
2023-04-29T12:16:48.379Z,22.54
2023-04-29T12:19:19.372Z,22.67
2023-04-29T12:21:49.960Z,22.76
2023-04-29T12:24:21.787Z,22.91
2023-04-29T12:26:51.460Z,23.00
2023-04-29T12:29:24.178Z,23.00
2023-04-29T12:31:53.944Z,22.96
2023-04-29T12:34:31.177Z,22.86
2023-04-29T12:37:02.862Z,22.71
2023-04-29T12:39:35.592Z,22.62
2023-04-29T12:42:05.237Z,22.45
2023-04-29T12:44:38.011Z,22.44
2023-04-29T12:47:11.116Z,22.40
2023-04-29T12:49:47.863Z,22.42
2023-04-29T12:52:17.653Z,22.46
2023-04-29T12:54:47.510Z,22.58
2023-04-29T12:57:17.190Z,22.82
2023-04-29T12:59:46.841Z,23.07
2023-04-29T13:02:17.386Z,23.28
2023-04-29T13:04:47.033Z,23.45
2023-04-29T13:07:16.275Z,23.61
2023-04-29T13:09:45.692Z,23.65
2023-04-29T13:12:14.429Z,23.65
2023-04-29T13:14:44.762Z,23.82
2023-04-29T13:17:14.350Z,24.10
2023-04-29T13:19:51.715Z,24.32
2023-04-29T13:22:22.549Z,24.47
2023-04-29T13:24:53.106Z,24.57
2023-04-29T13:27:22.894Z,24.62
2023-04-29T13:29:52.128Z,24.72
2023-04-29T13:32:24.688Z,24.84
2023-04-29T13:34:56.045Z,24.94
2023-04-29T13:37:25.385Z,25.06
2023-04-29T13:39:57.564Z,25.17
2023-04-29T13:42:27.729Z,25.21
2023-04-29T13:44:57.874Z,25.40
2023-04-29T13:47:30.360Z,25.71
2023-04-29T14:00:38.195Z,26.99
2023-04-29T14:03:03.898Z,27.31
2023-04-29T14:05:34.027Z,27.95
2023-04-29T14:08:03.833Z,28.31
2023-04-29T14:10:34.498Z,28.56
2023-04-29T14:13:04.456Z,28.76
2023-04-29T14:15:33.486Z,29.07
2023-04-29T14:18:02.693Z,29.19
2023-04-29T14:20:32.558Z,29.31
2023-04-29T14:23:01.633Z,29.33
2023-04-29T14:25:33.931Z,29.02
2023-04-29T14:28:03.402Z,28.68
2023-04-29T14:30:33.508Z,28.79
2023-04-29T14:33:03.215Z,28.59
2023-04-29T14:35:32.597Z,28.60
2023-04-29T14:38:01.744Z,28.73
2023-04-29T14:40:31.146Z,28.88
2023-04-29T14:43:00.652Z,29.13
2023-04-29T14:45:31.238Z,29.24
2023-04-29T14:48:02.325Z,29.22
2023-04-29T14:50:32.478Z,29.04
2023-04-29T14:53:01.988Z,28.99
2023-04-29T14:55:31.599Z,28.85
2023-04-29T14:58:01.525Z,28.58
2023-04-29T15:00:31.348Z,28.42
2023-04-29T15:03:03.610Z,28.44
2023-04-29T15:05:33.417Z,28.19
2023-04-29T15:08:04.058Z,28.03
2023-04-29T15:10:33.507Z,27.82
2023-04-29T15:13:02.996Z,27.69
2023-04-29T15:15:33.007Z,27.47
2023-04-29T15:18:02.667Z,27.22
2023-04-29T15:20:31.440Z,26.94
2023-04-29T15:23:01.218Z,26.63
2023-04-29T15:25:32.561Z,26.34
2023-04-29T15:28:05.119Z,26.07
2023-04-29T15:30:34.578Z,25.68
2023-04-29T15:33:05.107Z,25.41
2023-04-29T15:35:37.090Z,25.38
2023-04-29T15:38:07.082Z,25.20
2023-04-29T15:40:37.643Z,25.16
2023-04-29T15:43:08.069Z,24.97
2023-04-29T15:45:37.831Z,24.73
2023-04-29T15:48:07.962Z,24.53
2023-04-29T15:50:38.121Z,24.40
2023-04-29T15:53:08.020Z,24.37
2023-04-29T15:55:36.985Z,24.23
2023-04-29T15:58:07.102Z,24.12
2023-04-29T16:00:36.847Z,23.93
2023-04-29T16:03:06.350Z,23.82
2023-04-29T16:05:37.548Z,23.82
2023-04-29T16:08:07.246Z,23.77
2023-04-29T16:10:36.151Z,23.57
2023-04-29T16:13:05.152Z,23.44
2023-04-29T16:15:34.725Z,23.28
2023-04-29T16:18:04.240Z,23.20
2023-04-29T16:20:34.118Z,23.09
2023-04-29T16:23:04.105Z,22.94
2023-04-29T16:25:33.301Z,22.87
2023-04-29T16:28:02.282Z,22.73
2023-04-29T16:30:31.253Z,22.55
2023-04-29T16:33:00.397Z,22.46
2023-04-29T16:35:31.381Z,22.36
2023-04-29T16:38:01.208Z,22.23
2023-04-29T16:40:30.057Z,22.16
2023-04-29T16:42:59.354Z,22.15
2023-04-29T16:45:29.770Z,22.07
2023-04-29T16:47:59.283Z,21.97
2023-04-29T16:50:29.186Z,21.86
2023-04-29T16:52:59.353Z,21.73
2023-04-29T16:55:28.419Z,21.63
2023-04-29T16:57:57.863Z,21.59
2023-04-29T17:00:28.014Z,21.57
2023-04-29T17:02:59.810Z,21.44
2023-04-29T17:05:29.096Z,21.31
2023-04-29T17:07:57.791Z,21.21
2023-04-29T17:10:28.211Z,21.15
2023-04-29T17:12:57.768Z,21.07
2023-04-29T17:15:27.118Z,21.01
2023-04-29T17:17:57.029Z,20.98
2023-04-29T17:20:28.551Z,20.97
2023-04-29T17:22:58.413Z,20.97
2023-04-29T17:25:28.141Z,20.95
2023-04-29T17:27:57.010Z,20.93
2023-04-29T17:30:26.250Z,20.90
2023-04-29T17:32:55.304Z,20.77
2023-04-29T17:35:24.657Z,20.62
2023-04-29T17:37:54.318Z,20.55
2023-04-29T17:40:25.587Z,20.45
2023-04-29T17:42:55.747Z,20.34
2023-04-29T17:45:25.887Z,20.24
2023-04-29T17:47:57.009Z,20.15
2023-04-29T17:50:27.030Z,20.08
2023-04-29T17:52:58.304Z,20.07
2023-04-29T17:55:29.016Z,20.03
2023-04-29T17:57:59.347Z,19.96
2023-04-29T18:00:28.871Z,19.89
2023-04-29T18:02:58.897Z,19.87
2023-04-29T18:05:30.422Z,19.84
2023-04-29T18:08:00.255Z,19.81
2023-04-29T18:10:30.356Z,19.77
2023-04-29T18:13:00.429Z,19.75
2023-04-29T18:15:32.190Z,19.70
2023-04-29T18:18:02.510Z,19.66
2023-04-29T18:20:34.313Z,19.62
2023-04-29T18:23:05.429Z,19.59
2023-04-29T18:25:39.726Z,19.56
2023-04-29T18:28:24.066Z,19.52
2023-04-29T18:30:56.685Z,19.45
2023-04-29T18:33:27.753Z,19.44
2023-04-29T18:35:57.664Z,19.36
2023-04-29T18:38:27.075Z,19.28
2023-04-29T18:40:56.276Z,19.24
2023-04-29T18:43:29.616Z,19.22
2023-04-29T18:45:59.806Z,19.19
2023-04-29T18:48:30.723Z,19.17
2023-04-29T18:51:01.080Z,19.12
2023-04-29T18:53:32.181Z,19.13
2023-04-29T18:56:01.641Z,19.16
2023-04-29T18:58:31.966Z,19.11
2023-04-29T19:01:03.087Z,19.04
2023-04-29T19:03:32.751Z,18.98
2023-04-29T19:06:02.963Z,18.95
2023-04-29T19:08:32.599Z,19.02
2023-04-29T19:11:02.451Z,19.05
2023-04-29T19:13:32.915Z,19.03
2023-04-29T19:16:03.136Z,19.01
2023-04-29T19:18:33.720Z,19.00
2023-04-29T19:21:03.765Z,19.02
2023-04-29T19:23:33.490Z,19.05
2023-04-29T19:26:06.288Z,19.04
2023-04-29T19:28:36.762Z,18.96
2023-04-29T19:31:06.259Z,18.86
2023-04-29T19:33:37.061Z,18.84
2023-04-29T19:36:08.255Z,18.84
2023-04-29T19:38:39.007Z,18.79
2023-04-29T19:41:10.088Z,18.75
2023-04-29T19:43:40.183Z,18.65
2023-04-29T19:46:12.854Z,18.61
2023-04-29T19:48:43.841Z,18.68
2023-04-29T19:51:13.479Z,18.77
2023-04-29T19:53:47.791Z,18.80
2023-04-29T19:56:20.697Z,18.72
2023-04-29T19:58:51.181Z,18.60
2023-04-29T20:01:20.974Z,18.51
2023-04-29T20:03:50.529Z,18.47
2023-04-29T20:06:21.103Z,18.38
2023-04-29T20:08:52.103Z,18.22
2023-04-29T20:11:21.696Z,18.17
2023-04-29T20:13:51.047Z,18.17
2023-04-29T20:16:20.265Z,18.17
2023-04-29T20:18:49.161Z,18.04
2023-04-29T20:21:18.619Z,17.97
2023-04-29T20:23:50.059Z,17.99
2023-04-29T20:26:19.810Z,18.02
2023-04-29T20:28:49.823Z,18.02
2023-04-29T20:31:19.262Z,18.03
2023-04-29T20:33:48.330Z,18.03
2023-04-29T20:36:17.493Z,17.99
2023-04-29T20:38:49.275Z,17.96
2023-04-29T20:41:19.059Z,17.83
2023-04-29T20:43:47.836Z,17.75
2023-04-29T20:46:17.395Z,17.76
2023-04-29T20:48:48.342Z,17.77
2023-04-29T20:51:18.035Z,17.80
2023-04-29T20:53:47.300Z,17.79
2023-04-29T20:56:16.732Z,17.78
2023-04-29T20:58:46.004Z,17.79
2023-04-29T21:01:15.382Z,17.76
2023-04-29T21:03:44.900Z,17.75
2023-04-29T21:06:14.533Z,17.75
2023-04-29T21:08:43.739Z,17.74
2023-04-29T21:11:13.437Z,17.72
2023-04-29T21:13:43.204Z,17.71
2023-04-29T21:16:12.284Z,17.69
2023-04-29T21:18:41.576Z,17.72
2023-04-29T21:21:12.225Z,17.73
2023-04-29T21:23:42.444Z,17.71
2023-04-29T21:26:12.335Z,17.63
2023-04-29T21:28:42.623Z,17.61
2023-04-29T21:31:16.683Z,17.55
2023-04-29T21:33:46.376Z,17.51
2023-04-29T21:36:15.795Z,17.38
2023-04-29T21:38:44.818Z,17.30
2023-04-29T21:41:26.938Z,17.27
2023-04-29T21:44:00.320Z,17.29
2023-04-29T21:46:30.304Z,17.39
2023-04-29T21:48:59.541Z,17.42
2023-04-29T21:51:30.028Z,17.45
2023-04-29T21:53:59.229Z,17.47
2023-04-29T21:56:28.112Z,17.51
2023-04-29T21:58:57.480Z,17.51
2023-04-29T22:01:27.869Z,17.50
2023-04-29T22:03:58.138Z,17.47
2023-04-29T22:06:28.219Z,17.40
2023-04-29T22:08:57.967Z,17.40
2023-04-29T22:11:26.751Z,17.36
2023-04-29T22:13:56.006Z,17.38
2023-04-29T22:16:25.667Z,17.37
2023-04-29T22:18:58.061Z,17.32
2023-04-29T22:21:28.727Z,17.32
2023-04-29T22:23:58.377Z,17.32
2023-04-29T22:26:27.175Z,17.33
2023-04-29T22:28:57.721Z,17.32
2023-04-29T22:31:28.234Z,17.33
2023-04-29T22:33:57.342Z,17.37
2023-04-29T22:36:26.314Z,17.33
2023-04-29T22:38:55.457Z,17.32
2023-04-29T22:41:25.176Z,17.32
2023-04-29T22:43:58.175Z,17.34
2023-04-29T22:46:27.917Z,17.36
2023-04-29T22:48:57.122Z,17.37
2023-04-29T22:51:26.279Z,17.36
2023-04-29T22:53:55.592Z,17.42
2023-04-29T22:56:25.028Z,17.43
2023-04-29T22:58:54.979Z,17.40
2023-04-29T23:01:26.796Z,17.36
2023-04-29T23:03:57.041Z,17.38
2023-04-29T23:06:26.653Z,17.42
2023-04-29T23:08:55.729Z,17.47
2023-04-29T23:11:24.652Z,17.41
2023-04-29T23:13:55.096Z,17.43
2023-04-29T23:16:24.202Z,17.46
2023-04-29T23:18:53.203Z,17.51
2023-04-29T23:21:22.420Z,17.47
2023-04-29T23:23:51.153Z,17.40
2023-04-29T23:26:20.227Z,17.39
2023-04-29T23:28:48.992Z,17.41
2023-04-29T23:31:17.997Z,17.45
2023-04-29T23:33:46.907Z,17.47
2023-04-29T23:36:16.040Z,17.44
2023-04-29T23:38:44.935Z,17.50
2023-04-29T23:41:13.872Z,17.53
2023-04-29T23:43:42.662Z,17.50
2023-04-29T23:46:11.785Z,17.43
2023-04-29T23:48:40.458Z,17.40
2023-04-29T23:51:09.540Z,17.36
2023-04-29T23:53:39.700Z,17.35
2023-04-29T23:56:08.750Z,17.31
2023-04-29T23:58:37.782Z,17.26
